createdAt,value
2023-04-25T00:00:29.181Z,4.00
2023-04-25T00:03:19.830Z,3.90
2023-04-25T00:05:49.308Z,4.40
2023-04-25T00:08:17.640Z,5.20
2023-04-25T00:10:46.737Z,6.10
2023-04-25T00:13:15.890Z,6.20
2023-04-25T00:15:44.275Z,5.50
2023-04-25T00:18:12.554Z,5.20
2023-04-25T00:20:41.452Z,4.10
2023-04-25T00:23:09.662Z,4.50
2023-04-25T00:25:37.889Z,4.30
2023-04-25T00:28:06.351Z,4.00
2023-04-25T00:30:34.637Z,3.70
2023-04-25T00:33:02.922Z,3.60
2023-04-25T00:35:31.305Z,3.90
2023-04-25T00:37:59.696Z,3.50
2023-04-25T00:40:28.921Z,4.10
2023-04-25T00:42:57.352Z,5.00
2023-04-25T00:45:30.749Z,4.00
2023-04-25T00:47:59.655Z,3.30
2023-04-25T00:50:28.140Z,3.60
2023-04-25T00:52:56.572Z,2.90
2023-04-25T00:55:25.117Z,3.80
2023-04-25T00:57:53.683Z,3.50
2023-04-25T01:00:22.938Z,3.50
2023-04-25T01:02:52.753Z,3.30
2023-04-25T01:05:21.215Z,3.80
2023-04-25T01:07:50.127Z,3.70
2023-04-25T01:10:18.526Z,3.50
2023-04-25T01:12:46.839Z,3.90
2023-04-25T01:15:15.286Z,3.50
2023-04-25T01:17:45.433Z,4.50
2023-04-25T01:20:15.226Z,4.30
2023-04-25T01:22:44.780Z,4.10
2023-04-25T01:25:13.110Z,4.40
2023-04-25T01:27:41.866Z,4.10
2023-04-25T01:30:10.766Z,3.70
2023-04-25T01:32:39.837Z,4.20
2023-04-25T01:35:10.819Z,5.00
2023-04-25T01:37:40.517Z,4.40
2023-04-25T01:40:11.689Z,4.50
2023-04-25T01:42:43.335Z,4.20
2023-04-25T01:45:12.927Z,4.00
2023-04-25T01:47:44.088Z,3.90
2023-04-25T01:50:12.518Z,4.10
2023-04-25T01:52:41.073Z,3.90
2023-04-25T01:55:10.902Z,4.60
2023-04-25T01:57:43.112Z,4.00
2023-04-25T02:00:12.956Z,4.60
2023-04-25T02:02:41.517Z,4.90
2023-04-25T02:05:22.032Z,3.70
2023-04-25T02:07:50.408Z,3.80
2023-04-25T02:10:19.388Z,3.40
2023-04-25T02:13:06.597Z,4.10
2023-04-25T02:15:53.329Z,4.00
2023-04-25T02:18:22.603Z,4.30
2023-04-25T02:20:50.959Z,3.90
2023-04-25T02:23:20.320Z,4.30
2023-04-25T02:25:49.445Z,4.60
2023-04-25T02:28:17.775Z,4.30
2023-04-25T02:30:46.096Z,3.80
2023-04-25T02:33:14.409Z,4.10
2023-04-25T02:35:42.761Z,4.00
2023-04-25T02:38:11.281Z,3.50
2023-04-25T02:40:42.175Z,4.50
2023-04-25T02:43:10.467Z,4.80
2023-04-25T02:45:38.975Z,3.80
2023-04-25T02:48:07.482Z,4.40
2023-04-25T02:50:35.778Z,3.80
2023-04-25T02:53:04.071Z,4.80
2023-04-25T02:55:37.455Z,4.70
2023-04-25T02:58:06.525Z,4.60
2023-04-25T03:00:41.316Z,4.90
2023-04-25T03:03:09.698Z,5.00
2023-04-25T03:05:38.169Z,5.10
2023-04-25T03:08:07.103Z,5.00
2023-04-25T03:10:35.766Z,5.10
2023-04-25T03:13:07.062Z,5.00
2023-04-25T03:15:36.622Z,4.60
2023-04-25T03:18:05.209Z,4.40
2023-04-25T03:20:33.895Z,4.40
2023-04-25T03:23:02.490Z,6.10
2023-04-25T03:25:31.660Z,4.70
2023-04-25T03:28:00.683Z,4.50
2023-04-25T03:30:29.115Z,5.20
2023-04-25T03:32:57.384Z,5.40
2023-04-25T03:35:26.205Z,5.50
2023-04-25T03:37:55.055Z,5.40
2023-04-25T03:40:27.830Z,6.90
2023-04-25T03:43:19.130Z,4.80
2023-04-25T03:45:53.122Z,5.30
2023-04-25T03:48:25.876Z,4.90
2023-04-25T03:50:58.492Z,5.20
2023-04-25T03:53:26.803Z,5.30
2023-04-25T03:56:13.760Z,5.00
2023-04-25T03:58:42.512Z,5.60
2023-04-25T04:01:10.819Z,4.90
2023-04-25T04:03:39.768Z,6.90
2023-04-25T04:06:10.212Z,5.30
2023-04-25T04:08:41.705Z,5.40
2023-04-25T04:11:12.108Z,5.10
2023-04-25T04:13:40.542Z,6.20
2023-04-25T04:16:09.679Z,5.40
2023-04-25T04:18:38.467Z,5.20
2023-04-25T04:21:06.818Z,5.30
2023-04-25T04:23:39.773Z,5.10
2023-04-25T04:26:11.255Z,5.30
2023-04-25T04:28:57.519Z,4.10
2023-04-25T04:32:02.467Z,4.40
2023-04-25T04:34:32.241Z,5.80
2023-04-25T04:37:01.652Z,6.10
2023-04-25T04:39:30.077Z,5.10
2023-04-25T04:42:06.346Z,5.70
2023-04-25T04:44:53.449Z,5.20
2023-04-25T04:47:41.283Z,5.20
2023-04-25T04:50:17.419Z,6.10
2023-04-25T04:53:11.985Z,5.20
2023-04-25T04:56:07.041Z,8.50
2023-04-25T04:58:53.672Z,5.40
2023-04-25T05:01:38.539Z,5.70
2023-04-25T05:04:22.921Z,14.70
2023-04-25T05:07:17.884Z,7.70
2023-04-25T05:10:16.437Z,7.40
2023-04-25T05:13:21.755Z,6.50
2023-04-25T05:15:58.952Z,6.40
2023-04-25T05:18:47.403Z,4.90
2023-04-25T05:21:32.526Z,4.60
2023-04-25T05:24:20.986Z,5.70
2023-04-25T05:27:23.669Z,6.60
2023-04-25T05:30:10.715Z,6.90
2023-04-25T05:33:17.666Z,7.20
2023-04-25T05:35:46.749Z,7.80
2023-04-25T05:38:16.022Z,6.70
2023-04-25T05:41:04.639Z,7.50
2023-04-25T05:43:48.486Z,7.60
2023-04-25T05:46:25.950Z,6.40
2023-04-25T05:49:15.384Z,7.70
2023-04-25T05:52:05.652Z,6.00
2023-04-25T05:54:55.708Z,5.70
2023-04-25T05:57:27.222Z,7.10
2023-04-25T05:59:57.500Z,7.30
2023-04-25T06:02:42.279Z,7.20
2023-04-25T06:05:14.742Z,6.00
2023-04-25T06:07:43.356Z,5.90
2023-04-25T06:10:12.137Z,6.90
2023-04-25T06:12:40.670Z,5.50
2023-04-25T06:15:24.183Z,5.70
2023-04-25T06:17:57.333Z,9.70
2023-04-25T06:20:26.049Z,7.20
2023-04-25T06:22:56.078Z,6.10
2023-04-25T06:25:32.198Z,6.80
2023-04-25T06:28:00.926Z,6.00
2023-04-25T06:30:29.848Z,14.80
2023-04-25T06:33:05.037Z,6.10
2023-04-25T06:35:38.256Z,8.00
2023-04-25T06:38:06.908Z,6.10
2023-04-25T06:40:35.697Z,5.40
2023-04-25T06:43:04.272Z,5.10
2023-04-25T06:45:50.091Z,5.00
2023-04-25T06:48:18.528Z,5.20
2023-04-25T06:50:46.904Z,4.60
2023-04-25T06:53:16.034Z,5.60
2023-04-25T06:55:45.859Z,6.50
2023-04-25T06:58:27.412Z,5.80
2023-04-25T07:01:06.697Z,5.30
2023-04-25T07:03:35.360Z,5.30
2023-04-25T07:06:08.457Z,5.70
2023-04-25T07:08:36.744Z,6.60
2023-04-25T07:11:05.021Z,5.20
2023-04-25T07:13:33.814Z,5.30
2023-04-25T07:16:02.623Z,5.30
2023-04-25T07:18:32.362Z,6.90
2023-04-25T07:21:03.717Z,7.50
2023-04-25T07:23:32.610Z,6.60
2023-04-25T07:26:02.542Z,6.10
2023-04-25T07:28:31.480Z,6.30
2023-04-25T07:31:00.159Z,5.90
2023-04-25T07:33:28.662Z,5.90
2023-04-25T07:35:57.234Z,6.40
2023-04-25T07:38:25.888Z,7.70
2023-04-25T07:40:54.127Z,6.30
2023-04-25T07:43:22.788Z,6.60
2023-04-25T07:45:58.068Z,5.60
2023-04-25T07:48:28.253Z,5.30
2023-04-25T07:50:56.562Z,7.00
2023-04-25T07:53:23.598Z,6.30
2023-04-25T07:55:58.188Z,5.70
2023-04-25T07:58:26.620Z,6.30
2023-04-25T08:01:02.147Z,7.30
2023-04-25T08:03:36.808Z,7.60
2023-04-25T08:06:08.923Z,6.30
2023-04-25T08:08:44.658Z,6.10
2023-04-25T08:11:14.941Z,8.30
2023-04-25T08:13:43.216Z,6.20
2023-04-25T08:16:11.507Z,6.10
2023-04-25T08:18:39.785Z,6.30
2023-04-25T08:21:10.093Z,6.00
2023-04-25T08:23:38.999Z,8.40
2023-04-25T08:28:53.781Z,5.90
2023-04-25T08:31:22.143Z,7.10
2023-04-25T08:33:58.257Z,7.10
2023-04-25T08:36:47.751Z,7.80
2023-04-25T08:39:30.924Z,7.80
2023-04-25T08:42:20.418Z,7.10
2023-04-25T08:44:54.789Z,7.60
2023-04-25T08:47:27.766Z,7.30
2023-04-25T08:50:01.575Z,7.10
2023-04-25T08:52:37.354Z,6.00
2023-04-25T08:55:10.417Z,6.90
2023-04-25T08:57:44.166Z,7.00
2023-04-25T09:00:14.069Z,7.40
2023-04-25T09:02:45.412Z,6.60
2023-04-25T09:05:15.741Z,7.50
2023-04-25T09:07:44.970Z,7.00
2023-04-25T09:10:14.774Z,8.30
2023-04-25T09:12:43.552Z,8.00
2023-04-25T09:15:20.538Z,7.20
2023-04-25T09:17:59.971Z,8.70
2023-04-25T09:23:22.526Z,7.80
2023-04-25T09:25:55.097Z,7.30
2023-04-25T09:28:30.100Z,7.70
2023-04-25T09:31:00.024Z,7.80
2023-04-25T09:33:38.002Z,8.00
2023-04-25T09:36:13.715Z,7.00
2023-04-25T09:39:02.413Z,7.50
2023-04-25T09:41:39.910Z,8.70
2023-04-25T09:44:09.468Z,8.20
2023-04-25T09:46:40.073Z,8.20
2023-04-25T09:49:16.533Z,9.10
2023-04-25T09:52:10.801Z,9.90
2023-04-25T09:55:02.184Z,8.90
2023-04-25T09:57:34.429Z,7.70
2023-04-25T10:00:06.082Z,8.00
2023-04-25T10:02:48.293Z,9.90
2023-04-25T10:05:53.556Z,8.90
2023-04-25T10:08:23.582Z,8.80
2023-04-25T10:10:52.083Z,9.60
2023-04-25T10:13:20.975Z,9.60
2023-04-25T10:15:50.205Z,9.80
2023-04-25T10:18:21.122Z,10.50
2023-04-25T10:20:49.431Z,10.50
2023-04-25T10:23:20.798Z,12.00
2023-04-25T10:25:52.389Z,12.00
2023-04-25T10:28:22.021Z,11.70
2023-04-25T10:31:08.767Z,12.10
2023-04-25T10:33:43.254Z,12.70
2023-04-25T10:36:16.804Z,11.20
2023-04-25T10:38:46.615Z,11.10
2023-04-25T10:41:15.371Z,11.60
2023-04-25T10:43:46.393Z,12.40
2023-04-25T10:46:23.587Z,11.30
2023-04-25T10:48:57.046Z,11.20
2023-04-25T10:51:43.268Z,12.00
2023-04-25T10:54:13.237Z,12.70
2023-04-25T10:56:45.671Z,11.20
2023-04-25T10:59:18.461Z,13.30
2023-04-25T11:01:50.365Z,11.70
2023-04-25T11:04:30.232Z,13.30
2023-04-25T11:07:18.715Z,14.10
2023-04-25T11:09:50.116Z,12.40
2023-04-25T11:12:18.736Z,13.10
2023-04-25T11:14:47.133Z,13.40
2023-04-25T11:17:16.682Z,14.00
2023-04-25T11:19:51.081Z,12.10
2023-04-25T11:22:19.419Z,12.70
2023-04-25T11:24:48.101Z,13.70
2023-04-25T11:27:16.786Z,13.60
2023-04-25T11:29:45.056Z,13.30
2023-04-25T11:32:13.441Z,13.40
2023-04-25T11:34:46.743Z,12.50
2023-04-25T11:37:16.122Z,13.70
2023-04-25T11:39:47.216Z,13.40
2023-04-25T11:42:15.780Z,12.90
2023-04-25T11:44:44.772Z,14.50
2023-04-25T11:47:13.047Z,14.10
2023-04-25T11:49:44.220Z,14.30
2023-04-25T11:52:13.110Z,14.50
2023-04-25T11:54:42.364Z,13.10
2023-04-25T11:57:10.773Z,13.60
2023-04-25T11:59:39.175Z,13.50
2023-04-25T12:02:08.206Z,13.70
2023-04-25T12:04:37.140Z,13.90
2023-04-25T12:07:06.286Z,14.00
2023-04-25T12:09:34.940Z,14.10
2023-04-25T12:12:04.245Z,14.20
2023-04-25T12:14:35.409Z,14.40
2023-04-25T12:17:06.456Z,17.00
2023-04-25T12:19:42.358Z,15.50
2023-04-25T12:22:25.222Z,15.10
2023-04-25T12:24:55.424Z,13.60
2023-04-25T12:27:28.044Z,15.30
2023-04-25T12:29:57.908Z,14.50
2023-04-25T12:32:27.653Z,12.90
2023-04-25T12:34:56.461Z,13.40
2023-04-25T12:37:24.736Z,13.00
2023-04-25T12:39:53.898Z,13.10
2023-04-25T12:42:22.842Z,14.70
2023-04-25T12:44:51.079Z,14.60
2023-04-25T12:47:19.305Z,13.20
2023-04-25T12:49:47.571Z,13.80
2023-04-25T12:52:15.830Z,14.90
2023-04-25T12:54:44.191Z,15.90
2023-04-25T12:57:12.698Z,15.00
2023-04-25T12:59:40.963Z,15.10
2023-04-25T13:02:09.470Z,14.00
2023-04-25T13:04:38.239Z,14.70
2023-04-25T13:07:07.593Z,16.50
2023-04-25T13:09:35.961Z,15.60
2023-04-25T13:12:07.498Z,14.50
2023-04-25T13:14:36.725Z,14.20
2023-04-25T13:17:07.530Z,16.10
2023-04-25T13:19:37.050Z,14.20
2023-04-25T13:22:07.413Z,13.40
2023-04-25T13:24:35.674Z,13.50
2023-04-25T13:27:07.109Z,15.90
2023-04-25T13:30:00.830Z,13.60
2023-04-25T13:32:29.255Z,16.40
2023-04-25T13:34:58.163Z,16.00
2023-04-25T13:37:26.422Z,15.60
2023-04-25T13:39:56.716Z,13.80
2023-04-25T13:42:25.239Z,15.10
2023-04-25T13:44:56.164Z,14.00
2023-04-25T13:47:24.605Z,13.30
2023-04-25T13:49:52.976Z,14.30
2023-04-25T13:52:23.314Z,14.40
2023-04-25T13:54:52.463Z,15.60
2023-04-25T13:57:20.885Z,13.00
2023-04-25T13:59:49.528Z,14.80
2023-04-25T14:02:17.720Z,14.00
2023-04-25T14:04:47.165Z,15.50
2023-04-25T14:07:20.562Z,14.00
2023-04-25T14:09:48.837Z,14.50
2023-04-25T14:12:18.848Z,15.40
2023-04-25T14:14:47.151Z,15.50
2023-04-25T14:17:15.394Z,14.70
2023-04-25T14:19:46.840Z,14.30
2023-04-25T14:22:20.324Z,13.50
2023-04-25T14:24:49.746Z,14.00
2023-04-25T14:27:18.798Z,13.00
2023-04-25T14:29:47.604Z,12.90
2023-04-25T14:32:16.659Z,12.50
2023-04-25T14:34:46.794Z,14.00
2023-04-25T14:37:16.907Z,13.00
2023-04-25T14:39:46.436Z,13.30
2023-04-25T14:42:14.867Z,14.80
2023-04-25T14:44:43.198Z,14.30
2023-04-25T14:47:11.852Z,13.10
2023-04-25T14:49:40.226Z,13.90
2023-04-25T14:52:09.258Z,12.30
2023-04-25T14:54:37.716Z,12.00
2023-04-25T14:57:05.933Z,13.00
2023-04-25T14:59:34.489Z,11.80
2023-04-25T15:02:02.938Z,12.30
2023-04-25T15:04:32.274Z,13.40
2023-04-25T15:07:00.748Z,12.70
2023-04-25T15:09:29.730Z,12.20
2023-04-25T15:12:00.510Z,14.10
2023-04-25T15:14:28.964Z,14.60
2023-04-25T15:16:57.691Z,13.50
2023-04-25T15:19:26.226Z,15.00
2023-04-25T15:21:54.727Z,13.80
2023-04-25T15:24:24.360Z,12.70
2023-04-25T15:26:56.339Z,14.20
2023-04-25T15:29:25.681Z,12.00
2023-04-25T15:31:54.661Z,14.30
2023-04-25T15:34:25.887Z,13.60
2023-04-25T15:36:54.428Z,13.10
2023-04-25T15:39:25.074Z,10.90
2023-04-25T15:41:53.331Z,7.90
2023-04-25T15:44:21.743Z,5.80
2023-04-25T15:46:52.132Z,6.40
2023-04-25T15:49:22.566Z,6.30
2023-04-25T15:51:51.879Z,5.10
2023-04-25T15:54:20.663Z,4.80
2023-04-25T15:56:48.848Z,4.40
2023-04-25T15:59:17.816Z,3.70
2023-04-25T16:01:46.122Z,2.70
2023-04-25T16:04:14.664Z,2.60
2023-04-25T16:06:45.250Z,2.80
2023-04-25T16:09:15.270Z,3.10
2023-04-25T16:11:43.690Z,3.40
2023-04-25T16:14:12.400Z,4.70
2023-04-25T16:16:40.852Z,3.30
2023-04-25T16:19:09.377Z,3.80
2023-04-25T16:21:38.340Z,4.00
2023-04-25T16:24:06.929Z,3.30
2023-04-25T16:26:35.245Z,3.50
2023-04-25T16:29:06.202Z,4.80
2023-04-25T16:31:36.713Z,3.30
2023-04-25T16:34:05.300Z,4.00
2023-04-25T16:36:33.789Z,3.90
2023-04-25T16:39:02.002Z,4.70
2023-04-25T16:41:30.560Z,4.90
2023-04-25T16:43:58.783Z,4.60
2023-04-25T16:46:28.084Z,6.30
2023-04-25T16:48:57.688Z,5.50
2023-04-25T16:51:26.441Z,5.60
2023-04-25T16:53:56.371Z,5.10
2023-04-25T16:56:24.874Z,4.90
2023-04-25T16:58:53.561Z,4.70
2023-04-25T17:01:23.205Z,4.70
2023-04-25T17:03:52.050Z,4.30
2023-04-25T17:06:22.269Z,3.20
2023-04-25T17:08:51.392Z,3.50
2023-04-25T17:11:20.432Z,3.20
2023-04-25T17:13:48.852Z,3.00
2023-04-25T17:16:23.196Z,3.30
2023-04-25T17:18:52.640Z,3.20
2023-04-25T17:21:22.444Z,3.80
2023-04-25T17:23:52.973Z,6.00
2023-04-25T17:26:21.275Z,6.60
2023-04-25T17:28:50.021Z,4.90
2023-04-25T17:31:19.374Z,4.70
2023-04-25T17:33:49.607Z,4.70
2023-04-25T17:36:19.234Z,5.80
2023-04-25T17:38:47.698Z,3.60
2023-04-25T17:41:15.981Z,3.60
2023-04-25T17:43:44.181Z,3.00
2023-04-25T17:46:12.451Z,3.00
2023-04-25T17:48:40.730Z,2.90
2023-04-25T17:51:11.483Z,4.00
2023-04-25T17:53:40.087Z,3.90
2023-04-25T17:56:25.315Z,3.60
2023-04-25T18:01:23.552Z,3.00
2023-04-25T18:03:52.338Z,2.70
2023-04-25T18:06:20.852Z,2.90
2023-04-25T18:08:49.918Z,2.80
2023-04-25T18:11:19.840Z,2.70
2023-04-25T18:13:48.013Z,2.50
2023-04-25T18:16:18.858Z,2.40
2023-04-25T18:18:53.558Z,2.30
2023-04-25T18:21:30.077Z,3.50
2023-04-25T18:23:58.328Z,2.60
2023-04-25T18:26:26.571Z,2.30
2023-04-25T18:28:54.885Z,2.00
2023-04-25T18:31:25.421Z,2.70
2023-04-25T18:33:53.902Z,2.50
2023-04-25T18:36:22.408Z,4.70
2023-04-25T18:38:56.525Z,6.40
2023-04-25T18:41:51.963Z,4.20
2023-04-25T18:44:19.888Z,3.30
2023-04-25T18:46:48.103Z,3.40
2023-04-25T18:49:16.328Z,3.50
2023-04-25T18:51:47.131Z,3.20
2023-04-25T18:54:15.339Z,3.00
2023-04-25T18:56:43.539Z,3.80
2023-04-25T18:59:12.218Z,4.70
2023-04-25T19:01:40.492Z,3.40
2023-04-25T19:04:09.853Z,3.30
2023-04-25T19:06:38.262Z,3.80
2023-04-25T19:09:10.173Z,2.80
2023-04-25T19:11:38.956Z,3.40
2023-04-25T19:14:07.248Z,4.10
2023-04-25T19:16:39.347Z,4.10
2023-04-25T19:19:09.531Z,4.70
2023-04-25T19:21:38.403Z,5.80
2023-04-25T19:24:08.818Z,6.30
2023-04-25T19:26:38.354Z,5.90
2023-04-25T19:29:12.811Z,5.40
2023-04-25T19:31:43.511Z,5.20
2023-04-25T19:34:14.782Z,6.00
2023-04-25T19:36:44.247Z,6.10
2023-04-25T19:39:13.380Z,7.30
2023-04-25T19:41:41.845Z,6.80
2023-04-25T19:44:12.230Z,6.20
2023-04-25T19:46:42.302Z,7.00
2023-04-25T19:49:10.843Z,7.50
2023-04-25T19:51:40.640Z,8.90
2023-04-25T19:54:10.871Z,6.30
2023-04-25T19:56:39.571Z,5.60
2023-04-25T19:59:10.451Z,6.70
2023-04-25T20:01:38.706Z,6.20
2023-04-25T20:04:07.189Z,6.80
2023-04-25T20:06:37.070Z,5.50
2023-04-25T20:09:06.554Z,5.20
2023-04-25T20:11:34.853Z,5.80
2023-04-25T20:14:03.264Z,6.60
2023-04-25T20:16:32.384Z,5.60
2023-04-25T20:19:01.773Z,6.10
2023-04-25T20:21:30.288Z,4.60
2023-04-25T20:23:58.650Z,4.80
2023-04-25T20:26:28.223Z,4.80
2023-04-25T20:28:59.909Z,3.90
2023-04-25T20:31:28.370Z,3.70
2023-04-25T20:33:56.678Z,4.50
2023-04-25T20:36:25.150Z,4.40
2023-04-25T20:38:54.051Z,3.70
2023-04-25T20:41:22.804Z,3.60
2023-04-25T20:43:54.420Z,3.50
2023-04-25T20:46:22.671Z,3.30
2023-04-25T20:48:53.018Z,3.10
2023-04-25T20:51:21.684Z,4.40
2023-04-25T20:53:49.867Z,2.80
2023-04-25T20:56:19.134Z,2.70
2023-04-25T20:58:47.524Z,3.50
2023-04-25T21:01:15.810Z,3.30
2023-04-25T21:03:45.244Z,3.40
2023-04-25T21:06:13.696Z,4.20
2023-04-25T21:08:41.856Z,3.70
2023-04-25T21:11:10.097Z,3.50
2023-04-25T21:13:38.442Z,3.00
2023-04-25T21:16:07.383Z,3.10
2023-04-25T21:18:35.726Z,3.10
2023-04-25T21:21:04.580Z,2.40
2023-04-25T21:23:35.423Z,2.10
2023-04-25T21:26:03.946Z,2.00
2023-04-25T21:28:32.309Z,2.10
2023-04-25T21:31:00.874Z,2.00
2023-04-25T21:33:29.077Z,1.80
2023-04-25T21:35:57.457Z,1.80
2023-04-25T21:38:25.627Z,1.90
2023-04-25T21:40:53.880Z,2.10
2023-04-25T21:43:22.044Z,2.00
2023-04-25T21:46:11.437Z,2.30
2023-04-25T21:48:39.492Z,2.70
2023-04-25T21:51:07.829Z,2.40
2023-04-25T21:53:36.826Z,2.10
2023-04-25T21:56:05.209Z,2.90
2023-04-25T21:58:33.374Z,2.40
2023-04-25T22:01:01.857Z,2.30
2023-04-25T22:03:30.140Z,2.00
2023-04-25T22:05:58.990Z,2.40
2023-04-25T22:08:27.178Z,2.20
2023-04-25T22:10:55.448Z,2.30
2023-04-25T22:13:23.744Z,2.00
2023-04-25T22:15:52.855Z,2.80
2023-04-25T22:18:22.420Z,2.10
2023-04-25T22:20:50.576Z,1.80
2023-04-25T22:23:19.260Z,2.50
2023-04-25T22:25:47.552Z,2.20
2023-04-25T22:28:15.802Z,2.10
2023-04-25T22:30:44.059Z,2.90
2023-04-25T22:33:12.399Z,1.80
2023-04-25T22:35:41.067Z,1.60
2023-04-25T22:38:09.789Z,1.90
2023-04-25T22:40:38.154Z,1.30
2023-04-25T22:43:06.618Z,1.70
2023-04-25T22:45:36.006Z,1.60
2023-04-25T22:48:04.640Z,1.60
2023-04-25T22:50:34.337Z,1.30
2023-04-25T22:53:04.221Z,1.60
2023-04-25T22:55:32.445Z,1.50
2023-04-25T22:58:00.646Z,1.80
2023-04-25T23:00:30.498Z,1.80
2023-04-25T23:02:59.581Z,1.70
2023-04-25T23:05:28.327Z,1.50
2023-04-25T23:07:57.864Z,1.50
2023-04-25T23:10:28.330Z,2.30
2023-04-25T23:13:00.490Z,1.80
2023-04-25T23:15:31.140Z,1.40
2023-04-25T23:17:59.455Z,1.60
2023-04-25T23:20:27.798Z,1.40
2023-04-25T23:22:56.121Z,1.30
2023-04-25T23:25:24.738Z,1.50
2023-04-25T23:27:53.102Z,1.50
2023-04-25T23:30:21.642Z,1.80
2023-04-25T23:32:50.101Z,1.50
2023-04-25T23:35:18.370Z,1.70
2023-04-25T23:37:49.146Z,1.50
2023-04-25T23:40:17.377Z,1.50
2023-04-25T23:42:45.667Z,1.70
2023-04-25T23:45:16.009Z,1.50
2023-04-25T23:47:44.269Z,2.10
2023-04-25T23:50:12.640Z,1.70
2023-04-25T23:52:43.957Z,1.70
2023-04-25T23:55:13.678Z,1.50
2023-04-25T23:57:44.585Z,1.70
